sensor_id;sensor_type;location;lat;lon;timestamp;P1;durP1;ratioP1;P2;durP2;ratioP2
8777;SDS011;4425;50.872;4.712;2023-04-29T00:00:57;40.77;;;30.00;;
8777;SDS011;4425;50.872;4.712;2023-04-29T00:03:24;50.03;;;33.37;;
8777;SDS011;4425;50.872;4.712;2023-04-29T00:05:53;49.17;;;34.37;;
8777;SDS011;4425;50.872;4.712;2023-04-29T00:08:21;50.77;;;33.50;;
8777;SDS011;4425;50.872;4.712;2023-04-29T00:10:50;50.30;;;33.20;;
8777;SDS011;4425;50.872;4.712;2023-04-29T00:13:19;50.40;;;33.80;;
8777;SDS011;4425;50.872;4.712;2023-04-29T00:15:46;50.63;;;33.60;;
8777;SDS011;4425;50.872;4.712;2023-04-29T00:18:14;50.20;;;32.83;;
8777;SDS011;4425;50.872;4.712;2023-04-29T00:20:42;51.00;;;33.43;;
8777;SDS011;4425;50.872;4.712;2023-04-29T00:23:10;51.20;;;32.73;;
8777;SDS011;4425;50.872;4.712;2023-04-29T00:25:41;47.00;;;32.77;;
8777;SDS011;4425;50.872;4.712;2023-04-29T00:28:11;50.17;;;32.60;;
8777;SDS011;4425;50.872;4.712;2023-04-29T00:30:38;48.27;;;33.23;;
8777;SDS011;4425;50.872;4.712;2023-04-29T00:35:36;48.50;;;32.33;;
8777;SDS011;4425;50.872;4.712;2023-04-29T00:38:06;49.73;;;31.33;;
8777;SDS011;4425;50.872;4.712;2023-04-29T00:40:34;45.93;;;31.50;;
8777;SDS011;4425;50.872;4.712;2023-04-29T00:43:01;46.07;;;31.60;;
8777;SDS011;4425;50.872;4.712;2023-04-29T00:45:31;46.70;;;31.13;;
8777;SDS011;4425;50.872;4.712;2023-04-29T00:48:00;46.80;;;31.33;;
8777;SDS011;4425;50.872;4.712;2023-04-29T00:50:29;42.37;;;30.27;;
8777;SDS011;4425;50.872;4.712;2023-04-29T00:52:56;41.40;;;30.33;;
8777;SDS011;4425;50.872;4.712;2023-04-29T00:55:24;44.33;;;31.53;;
8777;SDS011;4425;50.872;4.712;2023-04-29T00:57:53;43.83;;;30.80;;
8777;SDS011;4425;50.872;4.712;2023-04-29T01:00:22;43.93;;;30.40;;
8777;SDS011;4425;50.872;4.712;2023-04-29T01:02:52;45.87;;;31.40;;
8777;SDS011;4425;50.872;4.712;2023-04-29T01:05:21;44.60;;;30.37;;
8777;SDS011;4425;50.872;4.712;2023-04-29T01:07:51;44.07;;;30.27;;
8777;SDS011;4425;50.872;4.712;2023-04-29T01:10:28;46.00;;;30.10;;
8777;SDS011;4425;50.872;4.712;2023-04-29T01:13:04;45.33;;;31.10;;
8777;SDS011;4425;50.872;4.712;2023-04-29T01:15:37;44.13;;;29.67;;
8777;SDS011;4425;50.872;4.712;2023-04-29T01:18:14;45.53;;;30.27;;
8777;SDS011;4425;50.872;4.712;2023-04-29T01:20:48;45.93;;;30.13;;
8777;SDS011;4425;50.872;4.712;2023-04-29T01:23:17;47.33;;;30.30;;
8777;SDS011;4425;50.872;4.712;2023-04-29T01:25:45;47.27;;;29.97;;
8777;SDS011;4425;50.872;4.712;2023-04-29T01:28:18;46.53;;;30.87;;
8777;SDS011;4425;50.872;4.712;2023-04-29T01:30:52;48.60;;;31.30;;
8777;SDS011;4425;50.872;4.712;2023-04-29T01:33:28;47.57;;;30.97;;
8777;SDS011;4425;50.872;4.712;2023-04-29T01:36:05;51.67;;;31.00;;
8777;SDS011;4425;50.872;4.712;2023-04-29T01:38:41;47.43;;;31.70;;
8777;SDS011;4425;50.872;4.712;2023-04-29T01:41:17;49.70;;;31.10;;
8777;SDS011;4425;50.872;4.712;2023-04-29T01:43:48;46.93;;;30.50;;
8777;SDS011;4425;50.872;4.712;2023-04-29T01:46:17;50.47;;;31.10;;
8777;SDS011;4425;50.872;4.712;2023-04-29T01:48:44;47.37;;;32.60;;
8777;SDS011;4425;50.872;4.712;2023-04-29T01:53:42;50.50;;;33.03;;
8777;SDS011;4425;50.872;4.712;2023-04-29T01:58:45;52.77;;;34.80;;
8777;SDS011;4425;50.872;4.712;2023-04-29T02:01:13;50.83;;;33.80;;
8777;SDS011;4425;50.872;4.712;2023-04-29T02:03:41;49.90;;;33.43;;
8777;SDS011;4425;50.872;4.712;2023-04-29T02:06:12;47.93;;;32.30;;
8777;SDS011;4425;50.872;4.712;2023-04-29T02:11:15;42.13;;;30.50;;
8777;SDS011;4425;50.872;4.712;2023-04-29T02:13:48;44.60;;;29.53;;
8777;SDS011;4425;50.872;4.712;2023-04-29T02:16:15;39.87;;;27.67;;
8777;SDS011;4425;50.872;4.712;2023-04-29T02:24:00;38.77;;;27.80;;
8777;SDS011;4425;50.872;4.712;2023-04-29T02:26:28;39.43;;;29.17;;
8777;SDS011;4425;50.872;4.712;2023-04-29T02:29:00;44.97;;;33.20;;
8777;SDS011;4425;50.872;4.712;2023-04-29T02:31:32;45.47;;;32.10;;
8777;SDS011;4425;50.872;4.712;2023-04-29T02:34:00;41.90;;;31.47;;
8777;SDS011;4425;50.872;4.712;2023-04-29T02:36:28;38.07;;;30.00;;
8777;SDS011;4425;50.872;4.712;2023-04-29T02:38:56;45.37;;;33.67;;
8777;SDS011;4425;50.872;4.712;2023-04-29T02:41:24;43.93;;;34.57;;
8777;SDS011;4425;50.872;4.712;2023-04-29T02:53:09;40.30;;;31.07;;
8777;SDS011;4425;50.872;4.712;2023-04-29T02:58:26;37.07;;;29.80;;
8777;SDS011;4425;50.872;4.712;2023-04-29T03:00:53;35.80;;;30.93;;
8777;SDS011;4425;50.872;4.712;2023-04-29T03:03:20;37.73;;;31.07;;
8777;SDS011;4425;50.872;4.712;2023-04-29T03:05:48;33.23;;;29.23;;
8777;SDS011;4425;50.872;4.712;2023-04-29T03:08:20;35.43;;;28.20;;
8777;SDS011;4425;50.872;4.712;2023-04-29T03:10:48;35.70;;;28.60;;
8777;SDS011;4425;50.872;4.712;2023-04-29T03:15:46;35.03;;;30.53;;
8777;SDS011;4425;50.872;4.712;2023-04-29T03:18:13;31.93;;;28.53;;
8777;SDS011;4425;50.872;4.712;2023-04-29T03:20:44;34.43;;;29.07;;
8777;SDS011;4425;50.872;4.712;2023-04-29T03:23:11;35.30;;;30.00;;
8777;SDS011;4425;50.872;4.712;2023-04-29T03:25:39;31.13;;;27.70;;
8777;SDS011;4425;50.872;4.712;2023-04-29T03:28:08;32.33;;;28.83;;
8777;SDS011;4425;50.872;4.712;2023-04-29T03:30:38;31.30;;;28.00;;
8777;SDS011;4425;50.872;4.712;2023-04-29T03:33:06;30.80;;;26.77;;
8777;SDS011;4425;50.872;4.712;2023-04-29T03:35:34;32.57;;;27.57;;
8777;SDS011;4425;50.872;4.712;2023-04-29T03:38:01;36.17;;;29.70;;
8777;SDS011;4425;50.872;4.712;2023-04-29T03:40:28;38.57;;;30.57;;
8777;SDS011;4425;50.872;4.712;2023-04-29T03:42:57;33.80;;;30.13;;
8777;SDS011;4425;50.872;4.712;2023-04-29T03:45:25;35.70;;;30.73;;
8777;SDS011;4425;50.872;4.712;2023-04-29T03:47:52;34.80;;;30.83;;
8777;SDS011;4425;50.872;4.712;2023-04-29T03:50:21;39.10;;;31.23;;
8777;SDS011;4425;50.872;4.712;2023-04-29T03:55:22;37.73;;;31.23;;
8777;SDS011;4425;50.872;4.712;2023-04-29T03:57:51;36.53;;;28.80;;
8777;SDS011;4425;50.872;4.712;2023-04-29T04:00:21;34.53;;;28.17;;
8777;SDS011;4425;50.872;4.712;2023-04-29T04:02:51;35.40;;;29.03;;
8777;SDS011;4425;50.872;4.712;2023-04-29T04:05:18;34.13;;;28.53;;
8777;SDS011;4425;50.872;4.712;2023-04-29T04:07:49;34.07;;;29.63;;
8777;SDS011;4425;50.872;4.712;2023-04-29T04:10:18;31.83;;;27.40;;
8777;SDS011;4425;50.872;4.712;2023-04-29T04:12:45;39.80;;;28.90;;
8777;SDS011;4425;50.872;4.712;2023-04-29T04:15:13;39.00;;;30.20;;
8777;SDS011;4425;50.872;4.712;2023-04-29T04:17:46;37.70;;;29.43;;
8777;SDS011;4425;50.872;4.712;2023-04-29T04:20:13;40.00;;;31.57;;
8777;SDS011;4425;50.872;4.712;2023-04-29T04:22:41;40.93;;;30.80;;
8777;SDS011;4425;50.872;4.712;2023-04-29T04:25:10;42.13;;;32.03;;
8777;SDS011;4425;50.872;4.712;2023-04-29T04:27:39;44.87;;;31.37;;
8777;SDS011;4425;50.872;4.712;2023-04-29T04:30:07;42.57;;;31.37;;
8777;SDS011;4425;50.872;4.712;2023-04-29T04:32:35;45.47;;;33.13;;
8777;SDS011;4425;50.872;4.712;2023-04-29T04:35:05;47.63;;;33.20;;
8777;SDS011;4425;50.872;4.712;2023-04-29T04:37:33;48.17;;;33.17;;
8777;SDS011;4425;50.872;4.712;2023-04-29T04:40:00;43.40;;;32.63;;
8777;SDS011;4425;50.872;4.712;2023-04-29T04:42:30;43.27;;;32.57;;
8777;SDS011;4425;50.872;4.712;2023-04-29T04:45:01;49.93;;;34.37;;
8777;SDS011;4425;50.872;4.712;2023-04-29T04:47:28;49.33;;;34.70;;
8777;SDS011;4425;50.872;4.712;2023-04-29T04:49:56;46.30;;;34.87;;
8777;SDS011;4425;50.872;4.712;2023-04-29T04:52:26;49.67;;;35.03;;
8777;SDS011;4425;50.872;4.712;2023-04-29T04:54:54;50.00;;;34.50;;
8777;SDS011;4425;50.872;4.712;2023-04-29T04:57:21;52.33;;;35.73;;
8777;SDS011;4425;50.872;4.712;2023-04-29T04:59:49;49.87;;;34.00;;
8777;SDS011;4425;50.872;4.712;2023-04-29T05:02:17;51.10;;;35.30;;
8777;SDS011;4425;50.872;4.712;2023-04-29T05:04:45;47.00;;;34.73;;
8777;SDS011;4425;50.872;4.712;2023-04-29T05:07:12;53.10;;;36.80;;
8777;SDS011;4425;50.872;4.712;2023-04-29T05:09:52;57.87;;;35.67;;
8777;SDS011;4425;50.872;4.712;2023-04-29T05:12:19;52.00;;;35.33;;
8777;SDS011;4425;50.872;4.712;2023-04-29T05:14:46;52.50;;;34.93;;
8777;SDS011;4425;50.872;4.712;2023-04-29T05:17:18;50.20;;;35.03;;
8777;SDS011;4425;50.872;4.712;2023-04-29T05:19:45;53.23;;;35.43;;
8777;SDS011;4425;50.872;4.712;2023-04-29T05:24:42;47.27;;;34.10;;
8777;SDS011;4425;50.872;4.712;2023-04-29T05:27:13;47.20;;;34.50;;
8777;SDS011;4425;50.872;4.712;2023-04-29T05:29:40;55.47;;;33.10;;
8777;SDS011;4425;50.872;4.712;2023-04-29T05:32:08;47.97;;;32.80;;
8777;SDS011;4425;50.872;4.712;2023-04-29T05:34:38;61.33;;;33.20;;
8777;SDS011;4425;50.872;4.712;2023-04-29T05:37:06;46.93;;;31.60;;
8777;SDS011;4425;50.872;4.712;2023-04-29T05:39:33;53.43;;;32.13;;
8777;SDS011;4425;50.872;4.712;2023-04-29T05:42:01;46.53;;;32.17;;
8777;SDS011;4425;50.872;4.712;2023-04-29T05:44:33;46.20;;;32.13;;
8777;SDS011;4425;50.872;4.712;2023-04-29T05:47:00;50.70;;;31.37;;
8777;SDS011;4425;50.872;4.712;2023-04-29T05:49:28;53.87;;;33.63;;
8777;SDS011;4425;50.872;4.712;2023-04-29T05:51:57;51.47;;;32.57;;
8777;SDS011;4425;50.872;4.712;2023-04-29T05:54:30;47.87;;;33.10;;
8777;SDS011;4425;50.872;4.712;2023-04-29T05:56:57;48.47;;;32.53;;
8777;SDS011;4425;50.872;4.712;2023-04-29T05:59:28;41.10;;;32.43;;
8777;SDS011;4425;50.872;4.712;2023-04-29T06:01:57;47.73;;;34.67;;
8777;SDS011;4425;50.872;4.712;2023-04-29T06:04:25;46.37;;;34.70;;
8777;SDS011;4425;50.872;4.712;2023-04-29T06:06:54;51.27;;;34.50;;
8777;SDS011;4425;50.872;4.712;2023-04-29T06:09:25;42.70;;;34.20;;
8777;SDS011;4425;50.872;4.712;2023-04-29T06:11:52;46.03;;;32.43;;
8777;SDS011;4425;50.872;4.712;2023-04-29T06:14:20;48.50;;;34.53;;
8777;SDS011;4425;50.872;4.712;2023-04-29T06:16:48;41.03;;;31.03;;
8777;SDS011;4425;50.872;4.712;2023-04-29T06:19:17;49.37;;;33.77;;
8777;SDS011;4425;50.872;4.712;2023-04-29T06:21:47;41.33;;;32.90;;
8777;SDS011;4425;50.872;4.712;2023-04-29T06:24:17;46.23;;;33.70;;
8777;SDS011;4425;50.872;4.712;2023-04-29T06:26:45;47.47;;;33.87;;
8777;SDS011;4425;50.872;4.712;2023-04-29T06:29:15;43.20;;;32.33;;
8777;SDS011;4425;50.872;4.712;2023-04-29T06:31:46;40.40;;;31.47;;
8777;SDS011;4425;50.872;4.712;2023-04-29T06:34:13;41.73;;;32.90;;
8777;SDS011;4425;50.872;4.712;2023-04-29T06:36:41;39.27;;;30.93;;
8777;SDS011;4425;50.872;4.712;2023-04-29T06:39:09;41.57;;;30.93;;
8777;SDS011;4425;50.872;4.712;2023-04-29T06:41:36;40.93;;;30.83;;
8777;SDS011;4425;50.872;4.712;2023-04-29T06:44:05;42.13;;;30.37;;
8777;SDS011;4425;50.872;4.712;2023-04-29T06:46:33;37.53;;;29.03;;
8777;SDS011;4425;50.872;4.712;2023-04-29T06:49:03;38.37;;;29.93;;
8777;SDS011;4425;50.872;4.712;2023-04-29T06:51:31;38.93;;;29.00;;
8777;SDS011;4425;50.872;4.712;2023-04-29T06:54:03;36.43;;;29.13;;
8777;SDS011;4425;50.872;4.712;2023-04-29T06:56:31;34.60;;;29.23;;
8777;SDS011;4425;50.872;4.712;2023-04-29T06:58:58;35.43;;;28.03;;
8777;SDS011;4425;50.872;4.712;2023-04-29T07:01:25;37.57;;;28.97;;
8777;SDS011;4425;50.872;4.712;2023-04-29T07:03:52;35.83;;;28.83;;
8777;SDS011;4425;50.872;4.712;2023-04-29T07:06:20;35.33;;;27.97;;
8777;SDS011;4425;50.872;4.712;2023-04-29T07:08:49;40.13;;;29.67;;
8777;SDS011;4425;50.872;4.712;2023-04-29T07:11:17;39.63;;;30.30;;
8777;SDS011;4425;50.872;4.712;2023-04-29T07:13:46;35.63;;;28.40;;
8777;SDS011;4425;50.872;4.712;2023-04-29T07:16:15;39.37;;;30.47;;
8777;SDS011;4425;50.872;4.712;2023-04-29T07:18:44;38.20;;;29.93;;
8777;SDS011;4425;50.872;4.712;2023-04-29T07:21:11;36.23;;;29.07;;
8777;SDS011;4425;50.872;4.712;2023-04-29T07:23:38;37.37;;;30.30;;
8777;SDS011;4425;50.872;4.712;2023-04-29T07:26:09;38.10;;;30.70;;
8777;SDS011;4425;50.872;4.712;2023-04-29T07:28:40;37.23;;;29.00;;
8777;SDS011;4425;50.872;4.712;2023-04-29T07:31:07;38.10;;;29.87;;
8777;SDS011;4425;50.872;4.712;2023-04-29T07:33:38;40.77;;;30.73;;
8777;SDS011;4425;50.872;4.712;2023-04-29T07:36:05;41.73;;;30.80;;
8777;SDS011;4425;50.872;4.712;2023-04-29T07:38:33;39.67;;;29.37;;
8777;SDS011;4425;50.872;4.712;2023-04-29T07:41:01;40.70;;;30.80;;
8777;SDS011;4425;50.872;4.712;2023-04-29T07:43:30;41.57;;;29.83;;
8777;SDS011;4425;50.872;4.712;2023-04-29T07:46:01;36.50;;;28.43;;
8777;SDS011;4425;50.872;4.712;2023-04-29T07:48:35;37.57;;;28.53;;
8777;SDS011;4425;50.872;4.712;2023-04-29T07:51:11;36.30;;;29.17;;
8777;SDS011;4425;50.872;4.712;2023-04-29T07:53:38;33.30;;;27.03;;
8777;SDS011;4425;50.872;4.712;2023-04-29T07:56:08;35.87;;;27.63;;
8777;SDS011;4425;50.872;4.712;2023-04-29T07:58:36;32.37;;;26.67;;
8777;SDS011;4425;50.872;4.712;2023-04-29T08:01:08;38.27;;;27.17;;
8777;SDS011;4425;50.872;4.712;2023-04-29T08:03:36;34.83;;;27.27;;
8777;SDS011;4425;50.872;4.712;2023-04-29T08:06:06;38.87;;;26.73;;
8777;SDS011;4425;50.872;4.712;2023-04-29T08:08:36;31.67;;;26.50;;
8777;SDS011;4425;50.872;4.712;2023-04-29T08:11:14;34.10;;;26.63;;
8777;SDS011;4425;50.872;4.712;2023-04-29T08:13:42;33.30;;;25.87;;
8777;SDS011;4425;50.872;4.712;2023-04-29T08:16:10;33.20;;;26.53;;
8777;SDS011;4425;50.872;4.712;2023-04-29T08:18:38;31.13;;;25.13;;
8777;SDS011;4425;50.872;4.712;2023-04-29T08:21:06;33.10;;;25.70;;
8777;SDS011;4425;50.872;4.712;2023-04-29T08:23:35;28.27;;;24.03;;
8777;SDS011;4425;50.872;4.712;2023-04-29T08:26:03;31.57;;;24.00;;
8777;SDS011;4425;50.872;4.712;2023-04-29T08:28:30;33.03;;;24.20;;
8777;SDS011;4425;50.872;4.712;2023-04-29T08:31:01;28.97;;;23.80;;
8777;SDS011;4425;50.872;4.712;2023-04-29T08:33:32;29.17;;;24.50;;
8777;SDS011;4425;50.872;4.712;2023-04-29T08:36:02;29.43;;;24.37;;
8777;SDS011;4425;50.872;4.712;2023-04-29T08:38:31;26.30;;;23.47;;
8777;SDS011;4425;50.872;4.712;2023-04-29T08:40:58;28.23;;;22.87;;
8777;SDS011;4425;50.872;4.712;2023-04-29T08:43:28;27.17;;;23.60;;
8777;SDS011;4425;50.872;4.712;2023-04-29T08:45:57;33.03;;;22.50;;
8777;SDS011;4425;50.872;4.712;2023-04-29T08:48:25;29.67;;;23.57;;
8777;SDS011;4425;50.872;4.712;2023-04-29T08:50:57;28.90;;;22.43;;
8777;SDS011;4425;50.872;4.712;2023-04-29T08:53:27;29.97;;;23.03;;
8777;SDS011;4425;50.872;4.712;2023-04-29T08:55:56;29.53;;;23.57;;
8777;SDS011;4425;50.872;4.712;2023-04-29T08:58:27;26.73;;;22.47;;
8777;SDS011;4425;50.872;4.712;2023-04-29T09:00:59;31.03;;;23.10;;
8777;SDS011;4425;50.872;4.712;2023-04-29T09:03:29;31.40;;;23.63;;
8777;SDS011;4425;50.872;4.712;2023-04-29T09:06:05;29.77;;;23.67;;
8777;SDS011;4425;50.872;4.712;2023-04-29T09:08:32;34.10;;;23.93;;
8777;SDS011;4425;50.872;4.712;2023-04-29T09:11:02;35.63;;;24.97;;
8777;SDS011;4425;50.872;4.712;2023-04-29T09:13:31;28.00;;;23.30;;
8777;SDS011;4425;50.872;4.712;2023-04-29T09:18:43;31.17;;;22.50;;
8777;SDS011;4425;50.872;4.712;2023-04-29T09:21:18;26.83;;;23.47;;
8777;SDS011;4425;50.872;4.712;2023-04-29T09:23:46;26.53;;;23.33;;
8777;SDS011;4425;50.872;4.712;2023-04-29T09:26:14;27.63;;;21.60;;
8777;SDS011;4425;50.872;4.712;2023-04-29T09:28:42;24.43;;;20.97;;
8777;SDS011;4425;50.872;4.712;2023-04-29T09:31:10;25.97;;;20.53;;
8777;SDS011;4425;50.872;4.712;2023-04-29T09:33:51;25.37;;;21.50;;
8777;SDS011;4425;50.872;4.712;2023-04-29T09:39:23;30.23;;;20.97;;
8777;SDS011;4425;50.872;4.712;2023-04-29T09:41:57;25.13;;;19.93;;
8777;SDS011;4425;50.872;4.712;2023-04-29T09:44:27;23.03;;;19.67;;
8777;SDS011;4425;50.872;4.712;2023-04-29T09:46:56;27.47;;;20.43;;
8777;SDS011;4425;50.872;4.712;2023-04-29T09:49:27;28.07;;;20.97;;
8777;SDS011;4425;50.872;4.712;2023-04-29T09:51:56;22.83;;;20.23;;
8777;SDS011;4425;50.872;4.712;2023-04-29T09:54:25;25.93;;;20.87;;
8777;SDS011;4425;50.872;4.712;2023-04-29T09:56:54;23.47;;;19.80;;
8777;SDS011;4425;50.872;4.712;2023-04-29T09:59:25;26.53;;;20.80;;
8777;SDS011;4425;50.872;4.712;2023-04-29T10:01:53;25.13;;;19.77;;
8777;SDS011;4425;50.872;4.712;2023-04-29T10:07:03;21.50;;;18.73;;
8777;SDS011;4425;50.872;4.712;2023-04-29T10:09:44;26.07;;;19.93;;
8777;SDS011;4425;50.872;4.712;2023-04-29T10:12:14;24.73;;;18.83;;
8777;SDS011;4425;50.872;4.712;2023-04-29T10:14:46;21.33;;;18.87;;
8777;SDS011;4425;50.872;4.712;2023-04-29T10:17:20;21.03;;;18.20;;
8777;SDS011;4425;50.872;4.712;2023-04-29T10:19:56;21.37;;;18.33;;
8777;SDS011;4425;50.872;4.712;2023-04-29T10:22:32;22.83;;;18.20;;
8777;SDS011;4425;50.872;4.712;2023-04-29T10:25:06;18.83;;;16.83;;
8777;SDS011;4425;50.872;4.712;2023-04-29T10:27:36;20.87;;;17.50;;
8777;SDS011;4425;50.872;4.712;2023-04-29T10:30:04;24.27;;;19.17;;
8777;SDS011;4425;50.872;4.712;2023-04-29T10:32:35;23.50;;;18.33;;
8777;SDS011;4425;50.872;4.712;2023-04-29T10:35:05;19.83;;;17.73;;
8777;SDS011;4425;50.872;4.712;2023-04-29T10:37:38;22.23;;;17.63;;
8777;SDS011;4425;50.872;4.712;2023-04-29T10:42:43;20.00;;;17.87;;
8777;SDS011;4425;50.872;4.712;2023-04-29T10:45:23;19.53;;;17.43;;
8777;SDS011;4425;50.872;4.712;2023-04-29T10:48:07;23.57;;;18.67;;
8777;SDS011;4425;50.872;4.712;2023-04-29T10:51:01;19.17;;;16.70;;
8777;SDS011;4425;50.872;4.712;2023-04-29T10:53:30;18.90;;;16.77;;
8777;SDS011;4425;50.872;4.712;2023-04-29T10:56:02;20.13;;;18.00;;
8777;SDS011;4425;50.872;4.712;2023-04-29T10:58:40;23.03;;;18.90;;
8777;SDS011;4425;50.872;4.712;2023-04-29T11:01:10;20.10;;;17.37;;
8777;SDS011;4425;50.872;4.712;2023-04-29T11:03:49;20.17;;;18.07;;
8777;SDS011;4425;50.872;4.712;2023-04-29T11:06:20;21.47;;;17.87;;
8777;SDS011;4425;50.872;4.712;2023-04-29T11:09:02;22.37;;;18.60;;
8777;SDS011;4425;50.872;4.712;2023-04-29T11:11:41;20.27;;;18.17;;
8777;SDS011;4425;50.872;4.712;2023-04-29T11:14:25;21.23;;;18.37;;
8777;SDS011;4425;50.872;4.712;2023-04-29T11:16:56;20.17;;;18.10;;
8777;SDS011;4425;50.872;4.712;2023-04-29T11:19:27;20.17;;;17.87;;
8777;SDS011;4425;50.872;4.712;2023-04-29T11:22:23;20.37;;;17.60;;
8777;SDS011;4425;50.872;4.712;2023-04-29T11:24:56;18.83;;;16.93;;
8777;SDS011;4425;50.872;4.712;2023-04-29T11:27:26;21.03;;;17.57;;
8777;SDS011;4425;50.872;4.712;2023-04-29T11:29:57;18.03;;;16.17;;
8777;SDS011;4425;50.872;4.712;2023-04-29T11:32:26;20.63;;;17.40;;
8777;SDS011;4425;50.872;4.712;2023-04-29T11:34:56;19.87;;;16.27;;
8777;SDS011;4425;50.872;4.712;2023-04-29T11:37:33;19.33;;;16.87;;
8777;SDS011;4425;50.872;4.712;2023-04-29T11:42:34;18.80;;;16.80;;
8777;SDS011;4425;50.872;4.712;2023-04-29T11:45:08;20.27;;;16.67;;
8777;SDS011;4425;50.872;4.712;2023-04-29T11:47:36;17.53;;;15.83;;
8777;SDS011;4425;50.872;4.712;2023-04-29T11:50:08;17.47;;;15.67;;
8777;SDS011;4425;50.872;4.712;2023-04-29T11:52:38;18.07;;;15.33;;
8777;SDS011;4425;50.872;4.712;2023-04-29T11:55:10;19.17;;;16.40;;
8777;SDS011;4425;50.872;4.712;2023-04-29T11:57:38;19.90;;;16.33;;
8777;SDS011;4425;50.872;4.712;2023-04-29T12:00:07;17.00;;;15.23;;
8777;SDS011;4425;50.872;4.712;2023-04-29T12:02:36;18.43;;;16.47;;
8777;SDS011;4425;50.872;4.712;2023-04-29T12:05:06;17.80;;;15.67;;
8777;SDS011;4425;50.872;4.712;2023-04-29T12:07:39;18.97;;;15.73;;
8777;SDS011;4425;50.872;4.712;2023-04-29T12:10:21;18.67;;;14.67;;
8777;SDS011;4425;50.872;4.712;2023-04-29T12:12:48;16.60;;;14.83;;
8777;SDS011;4425;50.872;4.712;2023-04-29T12:15:16;16.60;;;14.77;;
8777;SDS011;4425;50.872;4.712;2023-04-29T12:17:46;15.40;;;13.80;;
8777;SDS011;4425;50.872;4.712;2023-04-29T12:20:13;14.00;;;12.80;;
8777;SDS011;4425;50.872;4.712;2023-04-29T12:22:42;14.83;;;13.43;;
8777;SDS011;4425;50.872;4.712;2023-04-29T12:25:10;15.73;;;14.13;;
8777;SDS011;4425;50.872;4.712;2023-04-29T12:27:39;14.17;;;12.83;;
8777;SDS011;4425;50.872;4.712;2023-04-29T12:30:08;14.17;;;12.77;;
8777;SDS011;4425;50.872;4.712;2023-04-29T12:32:38;15.00;;;13.60;;
8777;SDS011;4425;50.872;4.712;2023-04-29T12:35:13;16.27;;;14.60;;
8777;SDS011;4425;50.872;4.712;2023-04-29T12:37:42;14.83;;;13.30;;
8777;SDS011;4425;50.872;4.712;2023-04-29T12:40:12;17.03;;;13.33;;
8777;SDS011;4425;50.872;4.712;2023-04-29T12:42:45;16.13;;;14.53;;
8777;SDS011;4425;50.872;4.712;2023-04-29T12:45:27;14.83;;;13.47;;
8777;SDS011;4425;50.872;4.712;2023-04-29T12:47:56;17.90;;;14.17;;
8777;SDS011;4425;50.872;4.712;2023-04-29T12:50:28;15.70;;;14.07;;
8777;SDS011;4425;50.872;4.712;2023-04-29T12:52:56;15.10;;;13.57;;
8777;SDS011;4425;50.872;4.712;2023-04-29T12:55:24;15.53;;;13.90;;
8777;SDS011;4425;50.872;4.712;2023-04-29T12:57:53;14.23;;;12.90;;
8777;SDS011;4425;50.872;4.712;2023-04-29T13:00:21;15.10;;;13.60;;
8777;SDS011;4425;50.872;4.712;2023-04-29T13:02:51;17.33;;;13.43;;
8777;SDS011;4425;50.872;4.712;2023-04-29T13:05:19;22.00;;;19.70;;
8777;SDS011;4425;50.872;4.712;2023-04-29T13:07:48;15.27;;;13.63;;
8777;SDS011;4425;50.872;4.712;2023-04-29T13:10:17;14.57;;;12.90;;
8777;SDS011;4425;50.872;4.712;2023-04-29T13:12:44;14.63;;;12.27;;
8777;SDS011;4425;50.872;4.712;2023-04-29T13:15:13;15.70;;;13.00;;
8777;SDS011;4425;50.872;4.712;2023-04-29T13:17:40;15.27;;;13.67;;
8777;SDS011;4425;50.872;4.712;2023-04-29T13:20:08;14.07;;;12.70;;
8777;SDS011;4425;50.872;4.712;2023-04-29T13:22:35;14.00;;;12.60;;
8777;SDS011;4425;50.872;4.712;2023-04-29T13:25:05;13.80;;;12.50;;
8777;SDS011;4425;50.872;4.712;2023-04-29T13:27:34;13.97;;;12.60;;
8777;SDS011;4425;50.872;4.712;2023-04-29T13:30:01;14.00;;;12.80;;
8777;SDS011;4425;50.872;4.712;2023-04-29T13:32:35;17.42;;;12.68;;
8777;SDS011;4425;50.872;4.712;2023-04-29T13:35:04;13.77;;;12.33;;
8777;SDS011;4425;50.872;4.712;2023-04-29T13:37:34;12.67;;;11.27;;
8777;SDS011;4425;50.872;4.712;2023-04-29T13:40:03;12.97;;;11.77;;
8777;SDS011;4425;50.872;4.712;2023-04-29T13:42:31;16.30;;;13.00;;
8777;SDS011;4425;50.872;4.712;2023-04-29T13:44:58;12.33;;;11.10;;
8777;SDS011;4425;50.872;4.712;2023-04-29T13:47:28;13.03;;;11.73;;
8777;SDS011;4425;50.872;4.712;2023-04-29T13:49:57;13.13;;;11.77;;
8777;SDS011;4425;50.872;4.712;2023-04-29T13:52:24;13.77;;;12.30;;
8777;SDS011;4425;50.872;4.712;2023-04-29T13:54:54;15.67;;;12.50;;
8777;SDS011;4425;50.872;4.712;2023-04-29T13:57:21;13.47;;;12.17;;
8777;SDS011;4425;50.872;4.712;2023-04-29T13:59:51;15.23;;;12.40;;
8777;SDS011;4425;50.872;4.712;2023-04-29T14:02:21;12.83;;;11.53;;
8777;SDS011;4425;50.872;4.712;2023-04-29T14:04:48;12.93;;;11.63;;
8777;SDS011;4425;50.872;4.712;2023-04-29T14:07:21;12.57;;;11.27;;
8777;SDS011;4425;50.872;4.712;2023-04-29T14:09:48;13.80;;;12.57;;
8777;SDS011;4425;50.872;4.712;2023-04-29T14:12:16;14.23;;;12.93;;
8777;SDS011;4425;50.872;4.712;2023-04-29T14:14:43;13.43;;;12.23;;
8777;SDS011;4425;50.872;4.712;2023-04-29T14:17:10;15.53;;;12.53;;
8777;SDS011;4425;50.872;4.712;2023-04-29T14:19:38;14.40;;;13.00;;
8777;SDS011;4425;50.872;4.712;2023-04-29T14:22:05;13.80;;;12.50;;
8777;SDS011;4425;50.872;4.712;2023-04-29T14:24:38;13.33;;;12.13;;
8777;SDS011;4425;50.872;4.712;2023-04-29T14:27:06;12.97;;;11.77;;
8777;SDS011;4425;50.872;4.712;2023-04-29T14:29:33;13.07;;;11.87;;
8777;SDS011;4425;50.872;4.712;2023-04-29T14:32:01;14.03;;;12.60;;
8777;SDS011;4425;50.872;4.712;2023-04-29T14:34:28;15.50;;;12.73;;
8777;SDS011;4425;50.872;4.712;2023-04-29T14:36:56;13.70;;;12.30;;
8777;SDS011;4425;50.872;4.712;2023-04-29T14:39:24;14.80;;;12.47;;
8777;SDS011;4425;50.872;4.712;2023-04-29T14:41:56;13.47;;;12.23;;
8777;SDS011;4425;50.872;4.712;2023-04-29T14:44:23;14.50;;;12.93;;
8777;SDS011;4425;50.872;4.712;2023-04-29T14:46:51;13.73;;;12.23;;
8777;SDS011;4425;50.872;4.712;2023-04-29T14:49:18;13.50;;;12.30;;
8777;SDS011;4425;50.872;4.712;2023-04-29T14:51:45;14.23;;;12.87;;
8777;SDS011;4425;50.872;4.712;2023-04-29T14:54:14;13.60;;;12.40;;
8777;SDS011;4425;50.872;4.712;2023-04-29T14:56:41;14.70;;;13.23;;
8777;SDS011;4425;50.872;4.712;2023-04-29T14:59:15;14.60;;;13.13;;
8777;SDS011;4425;50.872;4.712;2023-04-29T15:01:43;13.50;;;12.10;;
8777;SDS011;4425;50.872;4.712;2023-04-29T15:04:13;12.53;;;11.33;;
8777;SDS011;4425;50.872;4.712;2023-04-29T15:06:40;12.77;;;11.60;;
8777;SDS011;4425;50.872;4.712;2023-04-29T15:09:09;12.93;;;11.77;;
8777;SDS011;4425;50.872;4.712;2023-04-29T15:11:36;12.77;;;11.57;;
8777;SDS011;4425;50.872;4.712;2023-04-29T15:14:04;13.40;;;12.20;;
8777;SDS011;4425;50.872;4.712;2023-04-29T15:16:33;14.03;;;12.70;;
8777;SDS011;4425;50.872;4.712;2023-04-29T15:19:00;15.07;;;11.83;;
8777;SDS011;4425;50.872;4.712;2023-04-29T15:21:28;13.20;;;11.83;;
8777;SDS011;4425;50.872;4.712;2023-04-29T15:23:58;16.57;;;14.90;;
8777;SDS011;4425;50.872;4.712;2023-04-29T15:26:28;13.33;;;11.93;;
8777;SDS011;4425;50.872;4.712;2023-04-29T15:28:56;13.25;;;11.85;;
8777;SDS011;4425;50.872;4.712;2023-04-29T15:31:26;12.80;;;11.43;;
8777;SDS011;4425;50.872;4.712;2023-04-29T15:33:57;12.83;;;11.50;;
8777;SDS011;4425;50.872;4.712;2023-04-29T15:36:27;12.50;;;11.20;;
8777;SDS011;4425;50.872;4.712;2023-04-29T15:38:59;11.80;;;10.60;;
8777;SDS011;4425;50.872;4.712;2023-04-29T15:41:38;12.83;;;11.63;;
8777;SDS011;4425;50.872;4.712;2023-04-29T15:44:05;12.27;;;11.10;;
8777;SDS011;4425;50.872;4.712;2023-04-29T15:46:32;12.53;;;11.20;;
8777;SDS011;4425;50.872;4.712;2023-04-29T15:49:03;12.63;;;11.40;;
8777;SDS011;4425;50.872;4.712;2023-04-29T15:51:32;12.00;;;10.73;;